createdAt,value
2022-12-09T00:01:57.175Z,19.00
2022-12-09T00:04:25.614Z,18.87
2022-12-09T00:06:54.015Z,19.17
2022-12-09T00:09:22.191Z,18.60
2022-12-09T00:11:52.803Z,22.37
2022-12-09T00:14:20.950Z,15.83
2022-12-09T00:16:49.240Z,17.67
2022-12-09T00:19:17.792Z,17.30
2022-12-09T00:21:45.883Z,21.20
2022-12-09T00:24:15.009Z,17.30
2022-12-09T00:26:43.448Z,16.77
2022-12-09T00:29:13.767Z,20.67
2022-12-09T00:31:41.981Z,25.27
2022-12-09T00:34:13.425Z,18.87
2022-12-09T00:36:41.924Z,19.20
2022-12-09T00:39:12.230Z,29.30
2022-12-09T00:41:40.691Z,15.73
2022-12-09T00:44:08.755Z,23.53
2022-12-09T00:46:38.388Z,17.77
2022-12-09T00:49:06.536Z,17.37
2022-12-09T00:51:34.651Z,18.60
2022-12-09T00:54:04.197Z,19.50
2022-12-09T00:56:32.805Z,17.27
2022-12-09T00:59:01.457Z,18.80
2022-12-09T01:01:30.304Z,21.63
2022-12-09T01:04:00.041Z,19.07
2022-12-09T01:06:28.748Z,19.17
2022-12-09T01:08:56.774Z,19.83
2022-12-09T01:11:27.872Z,15.70
2022-12-09T01:14:01.195Z,17.00
2022-12-09T01:16:32.350Z,22.13
2022-12-09T01:19:04.881Z,21.17
2022-12-09T01:21:34.332Z,19.43
2022-12-09T01:24:02.846Z,17.40
2022-12-09T01:26:31.154Z,20.83
2022-12-09T01:28:59.452Z,22.07
2022-12-09T01:31:28.009Z,17.57
2022-12-09T01:33:57.010Z,21.50
2022-12-09T01:36:28.611Z,24.83
2022-12-09T01:38:58.259Z,18.03
2022-12-09T01:41:26.990Z,19.27
2022-12-09T01:44:13.697Z,15.00
2022-12-09T01:46:42.189Z,21.10
2022-12-09T01:49:16.143Z,23.10
2022-12-09T01:51:48.845Z,19.50
2022-12-09T01:54:17.865Z,16.93
2022-12-09T01:56:45.953Z,18.50
2022-12-09T01:59:17.103Z,16.80
2022-12-09T02:01:49.204Z,18.07
2022-12-09T02:04:17.901Z,20.80
2022-12-09T02:06:47.585Z,18.90
2022-12-09T02:09:16.169Z,16.90
2022-12-09T02:11:57.773Z,17.37
2022-12-09T02:14:32.624Z,19.20
2022-12-09T02:17:19.159Z,18.30
2022-12-09T02:20:01.587Z,20.57
2022-12-09T02:22:35.603Z,17.37
2022-12-09T02:25:14.216Z,20.07
2022-12-09T02:27:49.712Z,21.67
2022-12-09T02:30:21.405Z,21.57
2022-12-09T02:33:09.929Z,15.50
2022-12-09T02:35:43.972Z,18.67
2022-12-09T02:38:14.525Z,17.93
2022-12-09T02:40:47.668Z,20.50
2022-12-09T02:43:19.121Z,25.10
2022-12-09T02:45:48.898Z,23.10
2022-12-09T02:48:19.155Z,19.20
2022-12-09T02:50:51.227Z,18.57
2022-12-09T02:53:19.736Z,20.17
2022-12-09T02:55:50.465Z,24.57
2022-12-09T02:58:18.589Z,18.80
2022-12-09T03:00:46.713Z,20.13
2022-12-09T03:03:16.889Z,21.37
2022-12-09T03:05:57.636Z,21.20
2022-12-09T03:08:34.841Z,22.17
2022-12-09T03:11:07.886Z,21.57
2022-12-09T03:13:50.618Z,21.30
2022-12-09T03:16:24.445Z,23.50
2022-12-09T03:18:56.779Z,14.83
2022-12-09T03:21:29.082Z,19.03
2022-12-09T03:23:59.785Z,20.47
2022-12-09T03:26:31.033Z,18.40
2022-12-09T03:29:01.997Z,18.80
2022-12-09T03:31:32.665Z,21.87
2022-12-09T03:34:05.300Z,17.93
2022-12-09T03:36:37.880Z,19.80
2022-12-09T03:39:11.131Z,14.47
2022-12-09T03:41:43.369Z,18.47
2022-12-09T03:44:17.980Z,17.67
2022-12-09T03:46:47.449Z,16.10
2022-12-09T03:49:16.115Z,20.40
2022-12-09T03:51:49.196Z,16.63
2022-12-09T03:54:23.606Z,19.97
2022-12-09T03:56:55.558Z,20.20
2022-12-09T03:59:25.667Z,15.67
2022-12-09T04:01:54.600Z,16.23
2022-12-09T04:04:23.560Z,17.90
2022-12-09T04:06:55.195Z,17.13
2022-12-09T04:09:23.463Z,15.80
2022-12-09T04:11:52.411Z,18.70
2022-12-09T04:14:20.662Z,18.43
2022-12-09T04:16:49.131Z,17.90
2022-12-09T04:19:17.553Z,17.23
2022-12-09T04:21:46.017Z,16.80
2022-12-09T04:24:15.757Z,20.83
2022-12-09T04:26:44.287Z,21.07
2022-12-09T04:29:12.697Z,18.40
2022-12-09T04:31:40.916Z,20.97
2022-12-09T04:34:12.282Z,21.13
2022-12-09T04:36:40.458Z,20.00
2022-12-09T04:39:09.190Z,22.00
2022-12-09T04:41:39.043Z,18.13
2022-12-09T04:44:07.772Z,22.00
2022-12-09T04:46:36.082Z,18.17
2022-12-09T04:49:05.312Z,20.17
2022-12-09T04:51:39.637Z,18.93
2022-12-09T04:54:08.973Z,18.23
2022-12-09T04:56:38.626Z,19.87
2022-12-09T04:59:07.934Z,19.97
2022-12-09T05:01:36.725Z,20.70
2022-12-09T05:04:05.856Z,21.13
2022-12-09T05:06:35.283Z,19.57
2022-12-09T05:09:05.282Z,20.27
2022-12-09T05:11:33.779Z,23.73
2022-12-09T05:14:03.712Z,18.57
2022-12-09T05:16:31.907Z,27.23
2022-12-09T05:19:01.539Z,23.17
2022-12-09T05:21:30.050Z,20.77
2022-12-09T05:23:58.393Z,26.13
2022-12-09T05:26:27.139Z,17.77
2022-12-09T05:28:55.482Z,18.50
2022-12-09T05:31:25.520Z,15.67
2022-12-09T05:33:54.082Z,18.37
2022-12-09T05:36:25.520Z,16.70
2022-12-09T05:38:54.609Z,12.67
2022-12-09T05:41:23.793Z,13.90
2022-12-09T05:43:52.647Z,12.40
2022-12-09T05:46:21.588Z,14.43
2022-12-09T05:48:51.692Z,13.30
2022-12-09T05:51:24.625Z,15.70
2022-12-09T05:53:53.946Z,14.23
2022-12-09T05:56:24.379Z,16.27
2022-12-09T05:58:53.395Z,12.83
2022-12-09T06:01:22.915Z,13.33
2022-12-09T06:03:54.206Z,14.20
2022-12-09T06:06:26.648Z,15.00
2022-12-09T06:08:57.490Z,19.53
2022-12-09T06:11:26.732Z,14.37
2022-12-09T06:13:56.163Z,12.83
2022-12-09T06:16:24.942Z,17.80
2022-12-09T06:18:55.177Z,16.07
2022-12-09T06:21:23.958Z,14.03
2022-12-09T06:23:54.296Z,17.73
2022-12-09T06:26:25.289Z,18.13
2022-12-09T06:28:56.169Z,14.67
2022-12-09T06:31:24.919Z,18.63
2022-12-09T06:33:57.220Z,15.43
2022-12-09T06:36:26.154Z,15.10
2022-12-09T06:38:56.683Z,16.53
2022-12-09T06:41:25.493Z,16.63
2022-12-09T06:43:53.866Z,16.33
2022-12-09T06:46:24.914Z,14.63
2022-12-09T06:48:55.956Z,16.80
2022-12-09T06:51:26.099Z,17.37
2022-12-09T06:53:55.306Z,20.80
2022-12-09T06:56:24.032Z,19.40
2022-12-09T06:58:52.846Z,17.97
2022-12-09T07:01:23.616Z,13.60
2022-12-09T07:03:55.675Z,20.60
2022-12-09T07:06:28.588Z,20.40
2022-12-09T07:08:59.984Z,19.40
2022-12-09T07:11:31.860Z,20.13
2022-12-09T07:14:01.355Z,17.20
2022-12-09T07:16:30.271Z,17.90
2022-12-09T07:19:05.219Z,20.87
2022-12-09T07:21:34.682Z,17.60
2022-12-09T07:24:04.622Z,21.80
2022-12-09T07:26:33.697Z,22.83
2022-12-09T07:29:04.089Z,23.87
2022-12-09T07:31:32.697Z,19.37
2022-12-09T07:34:03.436Z,24.50
2022-12-09T07:36:33.812Z,25.53
2022-12-09T07:39:06.131Z,23.07
2022-12-09T07:41:34.701Z,22.80
2022-12-09T07:44:03.459Z,28.37
2022-12-09T07:46:32.334Z,25.43
2022-12-09T07:49:04.593Z,24.07
2022-12-09T07:51:33.548Z,23.87
2022-12-09T07:54:02.593Z,23.33
2022-12-09T07:56:30.941Z,26.33
2022-12-09T07:59:00.066Z,36.50
2022-12-09T08:01:31.055Z,32.17
2022-12-09T08:04:00.376Z,24.50
2022-12-09T08:06:32.012Z,25.83
2022-12-09T08:09:02.426Z,30.90
2022-12-09T08:11:33.167Z,24.17
2022-12-09T08:14:08.997Z,28.30
2022-12-09T08:16:40.359Z,27.13
2022-12-09T08:19:09.244Z,27.77
2022-12-09T08:21:39.808Z,33.37
2022-12-09T08:24:08.802Z,29.03
2022-12-09T08:26:39.450Z,31.20
2022-12-09T08:29:10.368Z,30.20
2022-12-09T08:31:42.360Z,31.60
2022-12-09T08:34:11.255Z,30.30
2022-12-09T08:36:41.111Z,28.37
2022-12-09T08:39:10.109Z,26.70
2022-12-09T08:41:39.994Z,27.70
2022-12-09T08:44:11.980Z,31.70
2022-12-09T08:46:41.899Z,38.60
2022-12-09T08:49:11.012Z,31.97
2022-12-09T08:51:41.388Z,31.77
2022-12-09T08:54:09.930Z,30.57
2022-12-09T08:56:38.708Z,26.47
2022-12-09T08:59:07.586Z,32.23
2022-12-09T09:01:36.449Z,29.13
2022-12-09T09:04:08.132Z,30.60
2022-12-09T09:06:38.475Z,26.30
2022-12-09T09:09:10.034Z,31.97
2022-12-09T09:11:39.452Z,30.27
2022-12-09T09:14:10.168Z,26.00
2022-12-09T09:16:40.795Z,29.83
2022-12-09T09:19:09.927Z,35.00
2022-12-09T09:21:38.574Z,26.20
2022-12-09T09:24:12.096Z,31.10
2022-12-09T09:26:42.611Z,28.80
2022-12-09T09:29:15.329Z,31.33
2022-12-09T09:31:44.236Z,25.30
2022-12-09T09:34:13.247Z,34.10
2022-12-09T09:36:42.154Z,31.23
2022-12-09T09:39:23.187Z,29.47
2022-12-09T09:41:53.806Z,27.87
2022-12-09T09:44:27.326Z,28.70
2022-12-09T09:46:58.583Z,29.33
2022-12-09T09:49:33.661Z,32.67
2022-12-09T09:52:06.596Z,25.30
2022-12-09T09:54:38.545Z,27.93
2022-12-09T09:57:15.783Z,28.57
2022-12-09T10:00:03.396Z,30.70
2022-12-09T10:03:03.461Z,25.07
2022-12-09T10:05:36.135Z,30.73
2022-12-09T10:08:32.784Z,29.07
2022-12-09T10:11:16.371Z,29.70
2022-12-09T10:13:51.675Z,28.83
2022-12-09T10:16:25.149Z,28.20
2022-12-09T10:19:08.927Z,24.17
2022-12-09T10:21:42.598Z,26.73
2022-12-09T10:24:23.226Z,24.57
2022-12-09T10:27:02.231Z,32.13
2022-12-09T10:29:47.699Z,30.83
2022-12-09T10:32:19.844Z,27.10
2022-12-09T10:34:49.691Z,28.43
2022-12-09T10:37:30.950Z,28.93
2022-12-09T10:40:08.998Z,28.40
2022-12-09T10:43:05.710Z,38.20
2022-12-09T10:46:00.180Z,22.60
2022-12-09T10:48:33.152Z,23.13
2022-12-09T10:51:06.214Z,19.43
2022-12-09T10:53:36.174Z,23.23
2022-12-09T10:56:05.756Z,21.90
2022-12-09T10:58:35.307Z,20.03
2022-12-09T11:01:07.829Z,27.20
2022-12-09T11:03:39.713Z,22.70
2022-12-09T11:06:20.424Z,19.80
2022-12-09T11:08:53.507Z,14.53
2022-12-09T11:11:38.824Z,24.73
2022-12-09T11:14:23.102Z,16.60
2022-12-09T11:16:53.775Z,17.03
2022-12-09T11:19:37.892Z,20.90
2022-12-09T11:22:39.606Z,21.83
2022-12-09T11:25:23.169Z,18.67
2022-12-09T11:27:55.296Z,18.77
2022-12-09T11:30:27.999Z,16.57
2022-12-09T11:33:03.716Z,20.87
2022-12-09T11:35:38.326Z,14.20
2022-12-09T11:38:30.976Z,14.57
2022-12-09T11:41:03.971Z,12.13
2022-12-09T11:43:42.705Z,16.10
2022-12-09T11:46:23.081Z,14.90
2022-12-09T11:48:59.580Z,13.67
2022-12-09T11:51:34.200Z,10.90
2022-12-09T11:54:06.797Z,9.77
2022-12-09T11:56:37.814Z,11.77
2022-12-09T11:59:10.574Z,10.60
2022-12-09T12:01:49.234Z,15.57
2022-12-09T12:04:21.393Z,15.57
2022-12-09T12:06:53.062Z,11.70
2022-12-09T12:09:26.146Z,18.37
2022-12-09T12:12:08.704Z,15.27
2022-12-09T12:14:39.797Z,10.73
2022-12-09T12:17:18.964Z,14.60
2022-12-09T12:19:50.468Z,11.03
2022-12-09T12:22:54.745Z,11.17
2022-12-09T12:25:47.856Z,12.57
2022-12-09T12:28:46.178Z,10.60
2022-12-09T12:31:28.648Z,8.00
2022-12-09T12:34:24.754Z,12.20
2022-12-09T12:37:02.364Z,14.60
2022-12-09T12:39:46.105Z,8.30
2022-12-09T12:42:30.037Z,13.37
2022-12-09T12:45:22.075Z,9.07
2022-12-09T12:47:58.092Z,7.70
2022-12-09T12:50:44.160Z,9.77
2022-12-09T12:53:21.516Z,11.37
2022-12-09T12:55:56.146Z,11.00
2022-12-09T12:58:41.062Z,10.07
2022-12-09T13:01:15.993Z,12.33
2022-12-09T13:03:54.830Z,8.43
2022-12-09T13:06:39.791Z,7.23
2022-12-09T13:09:12.939Z,9.93
2022-12-09T13:12:06.015Z,9.13
2022-12-09T13:14:40.918Z,10.10
2022-12-09T13:17:13.755Z,8.23
2022-12-09T13:19:44.493Z,11.30
2022-12-09T13:22:20.619Z,9.40
2022-12-09T13:25:00.183Z,9.77
2022-12-09T13:27:36.917Z,8.40
2022-12-09T13:30:10.551Z,8.70
2022-12-09T13:32:59.826Z,7.33
2022-12-09T13:35:35.668Z,8.30
2022-12-09T13:38:05.307Z,11.23
2022-12-09T13:40:36.930Z,7.70
2022-12-09T13:43:18.616Z,7.30
2022-12-09T13:45:54.019Z,12.27
2022-12-09T13:48:46.013Z,5.93
2022-12-09T13:51:14.772Z,8.20
2022-12-09T13:53:54.680Z,11.40
2022-12-09T13:56:28.291Z,7.50
2022-12-09T13:59:28.857Z,7.70
2022-12-09T14:02:01.758Z,31.00
2022-12-09T14:04:35.082Z,9.03
2022-12-09T14:07:10.903Z,7.73
2022-12-09T14:09:48.828Z,10.73
2022-12-09T14:12:55.677Z,8.33
2022-12-09T14:15:38.653Z,10.17
2022-12-09T14:18:28.168Z,11.30
2022-12-09T14:21:25.342Z,8.83
2022-12-09T14:24:30.674Z,11.07
2022-12-09T14:27:19.655Z,8.30
2022-12-09T14:29:54.183Z,9.37
2022-12-09T14:32:29.032Z,12.57
2022-12-09T14:35:24.109Z,12.17
2022-12-09T14:38:19.562Z,12.97
2022-12-09T14:40:55.959Z,10.03
2022-12-09T14:43:58.900Z,8.37
2022-12-09T14:46:30.487Z,8.53
2022-12-09T14:49:03.007Z,14.00
2022-12-09T14:51:36.681Z,10.90
2022-12-09T14:54:07.954Z,19.43
2022-12-09T14:56:36.268Z,12.13
2022-12-09T14:59:09.291Z,16.37
2022-12-09T15:01:56.210Z,13.37
2022-12-09T15:04:29.469Z,12.80
2022-12-09T15:07:12.822Z,11.13
2022-12-09T15:09:53.397Z,13.93
2022-12-09T15:12:25.444Z,12.27
2022-12-09T15:14:59.192Z,8.63
2022-12-09T15:17:31.166Z,9.97
2022-12-09T15:20:00.825Z,12.70
2022-12-09T15:22:32.644Z,10.87
2022-12-09T15:25:02.422Z,9.53
2022-12-09T15:27:31.676Z,9.77
2022-12-09T15:30:01.135Z,11.40
2022-12-09T15:32:30.735Z,15.03
2022-12-09T15:35:16.145Z,11.03
2022-12-09T15:37:45.096Z,10.10
2022-12-09T15:40:15.866Z,11.73
2022-12-09T15:42:47.605Z,18.40
2022-12-09T15:45:20.268Z,13.27
2022-12-09T15:47:51.909Z,13.27
2022-12-09T15:50:24.430Z,16.13
2022-12-09T15:52:55.525Z,11.03
2022-12-09T15:55:29.393Z,14.17
2022-12-09T15:58:01.618Z,10.60
2022-12-09T16:00:31.152Z,11.03
2022-12-09T16:02:59.683Z,13.27
2022-12-09T16:05:27.861Z,13.40
2022-12-09T16:07:58.979Z,12.07
2022-12-09T16:10:28.138Z,9.67
2022-12-09T16:13:09.849Z,14.83
2022-12-09T16:15:46.071Z,14.90
2022-12-09T16:18:19.004Z,13.95
2022-12-09T16:21:03.260Z,13.00
2022-12-09T16:23:31.391Z,16.10
2022-12-09T16:26:07.080Z,14.47
2022-12-09T16:28:36.558Z,12.33
2022-12-09T16:31:18.721Z,14.50
2022-12-09T16:33:49.722Z,15.60
2022-12-09T16:36:20.409Z,15.20
2022-12-09T16:39:32.733Z,16.27
2022-12-09T16:42:03.310Z,13.07
2022-12-09T16:44:34.855Z,17.80
2022-12-09T16:47:16.188Z,16.57
2022-12-09T16:49:47.882Z,17.67
2022-12-09T16:52:18.595Z,12.50
2022-12-09T16:54:48.384Z,15.97
2022-12-09T16:57:18.580Z,14.80
2022-12-09T16:59:46.991Z,9.60
2022-12-09T17:02:22.191Z,17.30
2022-12-09T17:04:51.977Z,15.57
2022-12-09T17:07:20.125Z,18.47
2022-12-09T17:09:48.375Z,13.53
2022-12-09T17:12:16.612Z,13.97
2022-12-09T17:14:45.093Z,14.13
2022-12-09T17:17:13.533Z,15.93
2022-12-09T17:19:44.148Z,15.70
2022-12-09T17:22:12.454Z,14.20
2022-12-09T17:24:40.715Z,15.33
2022-12-09T17:27:08.716Z,13.53
2022-12-09T17:29:37.275Z,13.90
2022-12-09T17:32:05.776Z,18.70
2022-12-09T17:34:34.133Z,15.67
2022-12-09T17:37:03.676Z,12.47
2022-12-09T17:39:32.052Z,15.20
2022-12-09T17:42:00.311Z,16.33
2022-12-09T17:44:28.506Z,19.53
2022-12-09T17:46:56.986Z,19.20
2022-12-09T17:49:25.447Z,17.53
2022-12-09T17:51:53.734Z,16.57
2022-12-09T17:54:23.295Z,16.00
2022-12-09T17:56:51.513Z,17.03
2022-12-09T17:59:28.588Z,25.53
2022-12-09T18:01:56.722Z,17.30
2022-12-09T18:04:24.863Z,17.20
2022-12-09T18:06:52.910Z,19.50
2022-12-09T18:09:23.090Z,18.17
2022-12-09T18:11:51.921Z,19.33
2022-12-09T18:14:20.994Z,15.60
2022-12-09T18:16:50.070Z,17.30
2022-12-09T18:19:20.315Z,22.47
2022-12-09T18:21:48.791Z,17.77
2022-12-09T18:24:17.050Z,21.67
2022-12-09T18:26:46.548Z,20.47
2022-12-09T18:29:15.371Z,22.37
2022-12-09T18:31:45.862Z,23.00
2022-12-09T18:34:14.281Z,21.80
2022-12-09T18:36:42.567Z,22.10
2022-12-09T18:39:10.577Z,19.60
2022-12-09T18:41:38.613Z,21.83
2022-12-09T18:44:08.672Z,20.40
2022-12-09T18:46:39.546Z,30.80
2022-12-09T18:49:09.668Z,21.60
2022-12-09T18:51:38.902Z,22.00
2022-12-09T18:54:08.142Z,28.03
2022-12-09T18:56:37.400Z,27.00
2022-12-09T18:59:08.581Z,27.53
2022-12-09T19:01:40.448Z,22.17
2022-12-09T19:04:13.400Z,20.00
2022-12-09T19:06:43.002Z,18.93
2022-12-09T19:09:13.089Z,18.33
2022-12-09T19:11:42.582Z,19.20
2022-12-09T19:14:12.196Z,20.10
2022-12-09T19:16:40.472Z,21.53
2022-12-09T19:19:10.820Z,23.27
2022-12-09T19:21:39.344Z,19.60
2022-12-09T19:24:09.067Z,35.07
2022-12-09T19:26:37.798Z,22.60
2022-12-09T19:29:08.137Z,22.90
2022-12-09T19:31:39.581Z,20.83
2022-12-09T19:34:09.377Z,19.67
2022-12-09T19:36:37.770Z,18.73
2022-12-09T19:39:08.310Z,21.43
2022-12-09T19:41:37.671Z,20.03
2022-12-09T19:44:06.596Z,20.10
2022-12-09T19:46:35.747Z,21.50
2022-12-09T19:49:05.596Z,26.70
2022-12-09T19:51:34.221Z,20.50
2022-12-09T19:54:03.042Z,18.77
2022-12-09T19:56:31.372Z,26.47
2022-12-09T19:59:00.623Z,20.20
2022-12-09T20:01:30.409Z,20.43
2022-12-09T20:04:08.794Z,23.67
2022-12-09T20:06:43.931Z,28.57
2022-12-09T20:09:14.346Z,28.83
2022-12-09T20:11:43.711Z,25.57
2022-12-09T20:14:14.039Z,25.00
2022-12-09T20:16:42.437Z,25.90
2022-12-09T20:19:11.717Z,22.90
2022-12-09T20:21:41.286Z,26.37
2022-12-09T20:24:10.947Z,28.23
2022-12-09T20:26:40.207Z,22.87
2022-12-09T20:29:10.810Z,22.23
2022-12-09T20:31:40.739Z,27.17
2022-12-09T20:34:12.606Z,22.03
2022-12-09T20:36:42.789Z,22.70
2022-12-09T20:39:15.321Z,26.77
2022-12-09T20:41:44.505Z,22.37
2022-12-09T20:44:13.925Z,23.37
2022-12-09T20:46:46.045Z,23.60
2022-12-09T20:49:14.157Z,23.27
2022-12-09T20:51:45.131Z,24.50
2022-12-09T20:54:14.863Z,21.30
2022-12-09T20:56:43.403Z,22.20
2022-12-09T20:59:13.890Z,21.40
2022-12-09T21:01:43.545Z,19.37
2022-12-09T21:04:11.727Z,22.77
2022-12-09T21:06:41.277Z,21.47
2022-12-09T21:09:11.743Z,19.83
2022-12-09T21:11:41.686Z,19.63
2022-12-09T21:14:11.476Z,21.00
2022-12-09T21:16:42.263Z,26.57
2022-12-09T21:19:13.658Z,21.47
2022-12-09T21:21:45.415Z,22.47
2022-12-09T21:24:14.556Z,21.80
2022-12-09T21:26:44.415Z,28.10
2022-12-09T21:29:14.324Z,25.97
2022-12-09T21:31:44.194Z,20.77
2022-12-09T21:34:12.401Z,28.67
2022-12-09T21:36:42.528Z,22.77
2022-12-09T21:39:13.241Z,20.33
2022-12-09T21:41:43.518Z,20.10
2022-12-09T21:44:17.389Z,21.90
2022-12-09T21:46:46.201Z,26.90
2022-12-09T21:49:15.344Z,23.37
2022-12-09T21:51:45.008Z,23.30
2022-12-09T21:54:13.757Z,23.87
2022-12-09T21:56:43.209Z,24.07
2022-12-09T21:59:12.253Z,24.07
2022-12-09T22:01:42.936Z,27.73
2022-12-09T22:04:12.842Z,29.37
2022-12-09T22:06:41.295Z,21.50
2022-12-09T22:09:09.877Z,24.30
2022-12-09T22:11:39.245Z,24.80
2022-12-09T22:14:10.811Z,23.03
2022-12-09T22:16:40.634Z,26.40
2022-12-09T22:19:10.442Z,25.20
2022-12-09T22:21:38.479Z,26.93
2022-12-09T22:24:09.298Z,26.07
2022-12-09T22:26:37.316Z,25.67
2022-12-09T22:29:06.339Z,25.53
2022-12-09T22:31:37.325Z,28.23
2022-12-09T22:34:08.037Z,24.03
2022-12-09T22:36:37.130Z,24.50
2022-12-09T22:39:06.695Z,24.50
2022-12-09T22:41:35.527Z,20.20
2022-12-09T22:44:04.183Z,25.17
2022-12-09T22:46:34.207Z,24.43
2022-12-09T22:49:05.885Z,23.00
2022-12-09T22:51:36.598Z,22.70
2022-12-09T22:54:08.033Z,21.80
2022-12-09T22:56:38.160Z,23.47
2022-12-09T22:59:06.421Z,25.80
2022-12-09T23:01:37.252Z,22.37
2022-12-09T23:04:09.302Z,23.17
2022-12-09T23:06:38.905Z,33.17
2022-12-09T23:09:08.320Z,25.00
2022-12-09T23:11:37.024Z,24.80
2022-12-09T23:14:05.261Z,24.50
2022-12-09T23:16:33.465Z,24.70
2022-12-09T23:19:01.635Z,25.03
2022-12-09T23:21:34.754Z,21.30
2022-12-09T23:24:06.051Z,25.63
2022-12-09T23:26:37.036Z,20.67
2022-12-09T23:29:07.479Z,21.37
2022-12-09T23:31:38.277Z,25.80
2022-12-09T23:34:07.641Z,25.17
2022-12-09T23:36:38.794Z,19.27
2022-12-09T23:39:10.886Z,27.90
2022-12-09T23:41:39.668Z,20.03
2022-12-09T23:44:11.831Z,25.30
2022-12-09T23:46:40.448Z,20.90
2022-12-09T23:49:08.964Z,26.33
2022-12-09T23:51:41.172Z,24.13
2022-12-09T23:54:10.851Z,21.43
2022-12-09T23:56:40.712Z,19.97
2022-12-09T23:59:10.427Z,24.07
